Time;durP1;ratioP1;P1;durP2;ratioP2;P2;SDS_P1;SDS_P2;PMS_P1;PMS_P2;Temp;Humidity;BMP_temperature;BMP_pressure;BME280_temperature;BME280_humidity;BME280_pressure;Samples;Min_cycle;Max_cycle;Signal;HPM_P1;HPM_P2
2021/07/02 00:01:35;;;;;;;49.20;26.58;;;;;;;11.26;100.00;101601.81;5071818;28;20029;-68
2021/07/02 00:04:00;;;;;;;50.05;26.50;;;;;;;11.25;100.00;101600.03;5072095;28;20111;-66
2021/07/02 00:06:26;;;;;;;50.60;26.25;;;;;;;11.25;100.00;101599.16;5072011;28;20145;-68
2021/07/02 00:08:51;;;;;;;52.40;26.20;;;;;;;11.27;100.00;101589.47;5071758;28;20387;-68
2021/07/02 00:11:16;;;;;;;50.25;26.58;;;;;;;11.21;100.00;101594.69;5074058;28;20037;-65
2021/07/02 00:13:41;;;;;;;50.20;26.35;;;;;;;11.18;100.00;101592.00;5075241;28;20154;-68
2021/07/02 00:16:07;;;;;;;51.08;26.92;;;;;;;11.19;100.00;101585.84;5075261;28;20024;-68
2021/07/02 00:18:32;;;;;;;51.38;27.60;;;;;;;11.19;100.00;101588.50;5075314;28;20107;-63
2021/07/02 00:20:57;;;;;;;51.20;27.00;;;;;;;11.13;100.00;101590.16;5075459;28;20032;-61
2021/07/02 00:23:23;;;;;;;53.08;27.58;;;;;;;11.09;100.00;101585.69;5075154;28;20491;-61
2021/07/02 00:25:48;;;;;;;54.25;28.10;;;;;;;11.04;100.00;101592.69;5075567;28;20048;-61
2021/07/02 00:28:13;;;;;;;52.45;27.58;;;;;;;11.05;100.00;101585.63;5075063;28;20467;-61
2021/07/02 00:30:39;;;;;;;53.30;28.20;;;;;;;11.05;100.00;101578.56;5073663;28;20510;-61
2021/07/02 00:33:04;;;;;;;53.72;29.00;;;;;;;11.03;100.00;101585.63;5075456;28;20024;-61
2021/07/02 00:35:29;;;;;;;57.60;29.63;;;;;;;10.99;100.00;101578.50;5074885;28;20086;-61
2021/07/02 00:37:55;;;;;;;56.10;29.95;;;;;;;10.96;100.00;101578.47;5075116;28;20020;-63
2021/07/02 00:40:20;;;;;;;53.40;28.77;;;;;;;10.93;100.00;101575.78;5074741;28;20032;-61
2021/07/02 00:42:45;;;;;;;54.58;28.98;;;;;;;10.91;100.00;101575.75;5075058;28;20021;-61
2021/07/02 00:45:11;;;;;;;58.13;30.27;;;;;;;10.91;100.00;101581.03;5074969;28;20097;-61
2021/07/02 00:47:37;;;;;;;53.85;29.88;;;;;;;10.98;100.00;101587.31;5074847;28;20480;-62
2021/07/02 00:50:04;;;;;;;53.95;29.33;;;;;;;10.99;100.00;101583.78;5070521;28;20020;-62
2021/07/02 00:52:29;;;;;;;52.72;29.27;;;;;;;11.01;100.00;101582.06;5074806;28;20031;-63
2021/07/02 00:54:55;;;;;;;54.90;29.85;;;;;;;11.06;100.00;101575.06;5074661;28;20020;-63
2021/07/02 00:57:21;;;;;;;50.13;27.98;;;;;;;11.08;100.00;101581.28;5074614;28;20185;-63
2021/07/02 00:59:46;;;;;;;55.15;29.20;;;;;;;11.12;100.00;101583.09;5074633;28;20049;-63
2021/07/02 01:02:13;;;;;;;53.50;29.75;;;;;;;11.14;100.00;101573.44;5074521;28;20078;-63
2021/07/02 01:04:39;;;;;;;50.53;27.80;;;;;;;11.11;100.00;101576.03;5074409;28;20498;-64
2021/07/02 01:07:04;;;;;;;52.13;28.40;;;;;;;11.12;100.00;101575.16;5074486;28;20024;-65
2021/07/02 01:09:30;;;;;;;49.40;27.70;;;;;;;11.21;100.00;101573.50;5074591;28;20024;-65
2021/07/02 01:11:57;;;;;;;54.92;28.45;;;;;;;11.15;100.00;101572.56;5074299;28;20063;-64
2021/07/02 01:14:22;;;;;;;52.22;29.05;;;;;;;11.14;100.00;101569.91;5074442;28;20038;-64
2021/07/02 01:16:47;;;;;;;51.65;28.80;;;;;;;11.08;100.00;101565.41;5074556;28;20021;-64
2021/07/02 01:19:14;;;;;;;52.75;28.40;;;;;;;11.13;100.00;101573.41;5074082;28;20063;-64
2021/07/02 01:21:39;;;;;;;52.05;29.35;;;;;;;11.11;100.00;101568.09;5073899;28;20490;-65
2021/07/02 01:24:04;;;;;;;52.95;29.02;;;;;;;11.09;100.00;101563.66;5073733;28;20032;-64
2021/07/02 01:26:30;;;;;;;52.60;28.60;;;;;;;11.16;100.00;101570.81;5074291;28;20035;-64
2021/07/02 01:28:56;;;;;;;50.78;29.35;;;;;;;11.16;100.00;101566.38;5074105;28;20028;-65
2021/07/02 01:31:21;;;;;;;47.58;27.15;;;;;;;11.09;100.00;101575.09;5074030;28;20060;-68
2021/07/02 01:33:47;;;;;;;48.28;27.75;;;;;;;11.14;100.00;101578.72;5074104;28;20024;-68
2021/07/02 01:36:18;;;;;;;48.85;27.95;;;;;;;11.14;100.00;101577.84;5073866;28;20032;-68
2021/07/02 01:38:43;;;;;;;47.40;26.55;;;;;;;11.15;100.00;101571.66;5073762;28;20032;-65
2021/07/02 01:41:09;;;;;;;48.10;26.67;;;;;;;11.11;100.00;101569.84;5073837;28;20376;-64
2021/07/02 01:43:34;;;;;;;52.03;27.85;;;;;;;11.06;100.00;101569.78;5073683;28;20036;-64
2021/07/02 01:45:59;;;;;;;52.53;28.75;;;;;;;11.11;100.00;101573.38;5073868;28;20021;-65
2021/07/02 01:48:25;;;;;;;50.17;29.52;;;;;;;11.22;100.00;101572.66;5073798;28;20031;-65
2021/07/02 01:50:51;;;;;;;47.92;27.70;;;;;;;11.30;100.00;101565.66;5073465;28;20032;-64
2021/07/02 01:53:16;;;;;;;51.50;30.17;;;;;;;11.27;100.00;101568.28;5073402;28;20027;-63
2021/07/02 01:55:41;;;;;;;53.58;30.58;;;;;;;11.30;100.00;101561.28;5073636;28;20059;-63
2021/07/02 01:58:07;;;;;;;50.65;29.65;;;;;;;11.33;100.00;101568.38;5073185;28;20123;-63
2021/07/02 02:00:32;;;;;;;53.42;30.27;;;;;;;11.33;100.00;101565.75;5073298;28;20533;-63
2021/07/02 02:02:58;;;;;;;51.42;29.92;;;;;;;11.30;100.00;101555.09;5073510;28;20064;-63
2021/07/02 02:05:23;;;;;;;54.30;29.65;;;;;;;11.29;100.00;101562.16;5073245;28;20111;-63
2021/07/02 02:07:49;;;;;;;52.25;30.42;;;;;;;11.30;100.00;101558.66;5073394;28;20059;-61
2021/07/02 02:10:14;;;;;;;55.55;31.70;;;;;;;11.30;100.00;101558.66;5073499;28;20429;-63
2021/07/02 02:12:39;;;;;;;52.88;29.83;;;;;;;11.29;100.00;101546.28;5073415;28;20077;-63
2021/07/02 02:15:06;;;;;;;55.53;31.20;;;;;;;11.32;100.00;101553.38;5073239;28;20029;-63
2021/07/02 02:17:32;;;;;;;52.25;30.20;;;;;;;11.35;100.00;101550.75;5073221;28;20411;-62
2021/07/02 02:19:57;;;;;;;53.42;29.88;;;;;;;11.33;100.00;101547.22;5072927;28;20032;-61
2021/07/02 02:22:22;;;;;;;55.10;30.83;;;;;;;11.33;100.00;101550.75;5073305;28;20085;-61
2021/07/02 02:24:48;;;;;;;51.22;29.10;;;;;;;11.38;100.00;101560.50;5072766;28;20025;-63
2021/07/02 02:27:13;;;;;;;55.83;30.50;;;;;;;11.42;100.00;101557.91;5072715;28;20024;-63
2021/07/02 02:29:38;;;;;;;55.88;29.25;;;;;;;11.46;100.00;101554.44;5073132;28;20021;-61
2021/07/02 02:32:04;;;;;;;53.47;28.85;;;;;;;11.53;100.00;101555.38;5071316;28;20037;-61
2021/07/02 02:34:30;;;;;;;53.63;29.83;;;;;;;11.56;100.00;101550.09;5072678;28;20020;-63
2021/07/02 02:36:55;;;;;;;54.80;29.55;;;;;;;11.58;100.00;101555.44;5072901;28;20463;-63
2021/07/02 02:39:20;;;;;;;52.22;29.35;;;;;;;11.62;100.00;101550.19;5072440;28;20054;-63
2021/07/02 02:41:46;;;;;;;55.05;29.38;;;;;;;11.65;100.00;101544.94;5072677;28;20028;-63
2021/07/02 02:44:11;;;;;;;51.10;27.50;;;;;;;11.68;100.00;101538.78;5073000;28;20066;-63
2021/07/02 02:46:37;;;;;;;51.10;27.63;;;;;;;11.72;100.00;101529.97;5072870;28;20031;-63
2021/07/02 02:49:03;;;;;;;56.33;27.80;;;;;;;11.74;100.00;101528.25;5072811;28;20021;-63
2021/07/02 02:51:28;;;;;;;49.40;27.00;;;;;;;11.75;100.00;101529.13;5072703;28;20032;-62
2021/07/02 02:53:53;;;;;;;51.75;28.05;;;;;;;11.73;100.00;101529.13;5072661;28;20024;-63
2021/07/02 02:56:19;;;;;;;50.70;28.15;;;;;;;11.77;100.00;101538.88;5072562;28;20029;-61
2021/07/02 02:58:44;;;;;;;51.55;26.85;;;;;;;11.76;100.00;101534.44;5072397;28;20073;-63
2021/07/02 03:01:10;;;;;;;50.42;26.05;;;;;;;11.77;100.00;101533.56;5072519;28;20395;-62
2021/07/02 03:03:36;;;;;;;51.28;26.67;;;;;;;11.79;100.00;101533.59;5072638;28;20020;-63
2021/07/02 03:06:01;;;;;;;47.90;25.58;;;;;;;11.81;100.00;101538.03;5072335;28;20045;-64
2021/07/02 03:08:26;;;;;;;48.17;24.95;;;;;;;11.81;100.00;101540.69;5072365;28;20021;-63
2021/07/02 03:10:51;;;;;;;47.88;25.90;;;;;;;11.83;100.00;101538.06;5072458;28;20029;-62
2021/07/02 03:13:17;;;;;;;46.88;25.42;;;;;;;11.84;100.00;101540.72;5070886;28;20075;-62
2021/07/02 03:15:42;;;;;;;46.40;24.65;;;;;;;11.86;100.00;101532.78;5072224;28;20048;-64
2021/07/02 03:18:08;;;;;;;45.28;24.42;;;;;;;11.86;100.00;101538.97;5072558;28;20077;-62
2021/07/02 03:20:33;;;;;;;44.65;25.05;;;;;;;11.86;100.00;101544.25;5072120;28;20025;-62
2021/07/02 03:22:58;;;;;;;43.53;23.65;;;;;;;11.89;100.00;101540.75;5072318;28;20021;-63
2021/07/02 03:25:24;;;;;;;43.38;24.30;;;;;;;11.90;100.00;101545.19;5072369;28;20044;-62
2021/07/02 03:27:49;;;;;;;44.33;24.20;;;;;;;11.92;100.00;101540.78;5072006;28;20021;-64
2021/07/02 03:30:15;;;;;;;47.78;25.05;;;;;;;11.91;100.00;101538.13;5072250;28;20078;-62
2021/07/02 03:32:41;;;;;;;43.50;23.73;;;;;;;11.92;100.00;101538.13;5071980;28;20039;-65
2021/07/02 03:35:08;;;;;;;45.00;23.30;;;;;;;11.91;100.00;101541.69;5072166;28;20104;-62
2021/07/02 03:37:34;;;;;;;44.28;23.85;;;;;;;11.92;100.00;101547.84;5068228;28;20033;-62
2021/07/02 03:40:00;;;;;;;47.08;23.45;;;;;;;11.93;100.00;101544.34;5072264;28;20395;-63
2021/07/02 03:42:26;;;;;;;45.70;24.42;;;;;;;11.94;100.00;101546.13;5072482;28;20063;-64
2021/07/02 03:44:52;;;;;;;41.80;23.48;;;;;;;11.93;100.00;101550.56;5072404;28;20048;-62
2021/07/02 03:47:17;;;;;;;45.88;23.45;;;;;;;11.96;100.00;101550.56;5075841;28;20017;-63
2021/07/02 03:49:43;;;;;;;41.58;22.42;;;;;;;11.97;100.00;101557.66;5075848;28;20047;-63
2021/07/02 03:52:08;;;;;;;42.60;22.77;;;;;;;12.00;100.00;101556.81;5075947;28;20024;-64
2021/07/02 03:54:33;;;;;;;43.78;22.65;;;;;;;12.01;100.00;101554.19;5075823;28;20059;-61
2021/07/02 03:57:11;;;;;;;42.10;22.55;;;;;;;12.02;100.00;101550.63;5075718;28;20041;-62
2021/07/02 03:59:44;;;;;;;40.08;22.15;;;;;;;12.04;100.00;101558.59;5071784;28;20080;-61
2021/07/02 04:02:11;;;;;;;43.78;23.20;;;;;;;12.09;100.00;101550.72;5072364;28;20542;-62
2021/07/02 04:04:37;;;;;;;42.38;22.65;;;;;;;12.09;100.00;101556.88;5075518;28;20048;-62
2021/07/02 04:07:04;;;;;;;42.83;22.85;;;;;;;12.12;100.00;101556.91;5075465;28;20035;-67
2021/07/02 04:09:30;;;;;;;42.03;22.48;;;;;;;12.12;100.00;101562.22;5075672;28;20033;-64
2021/07/02 04:11:55;;;;;;;41.40;22.45;;;;;;;12.13;100.00;101558.69;5075400;28;20020;-68
2021/07/02 04:14:21;;;;;;;40.30;22.63;;;;;;;12.18;100.00;101556.09;5075584;28;20498;-68
2021/07/02 04:16:46;;;;;;;41.28;21.88;;;;;;;12.19;100.00;101563.16;5075609;28;20028;-68
2021/07/02 04:19:12;;;;;;;41.63;22.15;;;;;;;12.20;100.00;101556.97;5075217;28;20040;-68
2021/07/02 04:21:37;;;;;;;41.20;21.90;;;;;;;12.22;100.00;101560.53;5075260;28;20387;-66
2021/07/02 04:24:03;;;;;;;41.50;23.63;;;;;;;12.23;100.00;101564.06;5075732;28;20373;-68
2021/07/02 04:26:28;;;;;;;39.58;20.98;;;;;;;12.23;100.00;101566.72;5075337;28;20035;-68
2021/07/02 04:28:54;;;;;;;36.75;19.52;;;;;;;12.25;100.00;101563.22;5075446;28;20111;-68
2021/07/02 04:31:19;;;;;;;38.35;21.27;;;;;;;12.27;100.00;101555.28;5075267;28;20060;-66
2021/07/02 04:33:44;;;;;;;38.03;20.67;;;;;;;12.29;100.00;101564.13;5075047;28;20027;-68
2021/07/02 04:36:10;;;;;;;38.95;20.65;;;;;;;12.29;100.00;101559.72;5075211;28;20032;-68
2021/07/02 04:38:35;;;;;;;38.78;20.77;;;;;;;12.32;100.00;101558.84;5074888;28;20050;-63
2021/07/02 04:41:00;;;;;;;38.90;20.85;;;;;;;12.36;100.00;101568.59;5074774;28;20479;-63
2021/07/02 04:43:26;;;;;;;38.13;20.52;;;;;;;12.42;100.00;101565.13;5075006;28;20032;-64
2021/07/02 04:45:51;;;;;;;37.08;20.48;;;;;;;12.43;100.00;101565.13;5075112;28;20024;-63
2021/07/02 04:48:16;;;;;;;39.47;20.52;;;;;;;12.44;100.00;101558.09;5074768;28;20429;-62
2021/07/02 04:50:42;;;;;;;36.53;19.75;;;;;;;12.39;100.00;101555.38;5074892;28;20040;-62
2021/07/02 04:53:07;;;;;;;37.65;20.92;;;;;;;12.41;100.00;101552.72;5074843;28;20028;-63
2021/07/02 04:55:32;;;;;;;41.20;20.77;;;;;;;12.43;100.00;101557.16;5074711;28;20116;-62
2021/07/02 04:57:58;;;;;;;37.88;21.17;;;;;;;12.48;100.00;101554.56;5073506;28;20017;-63
2021/07/02 05:00:26;;;;;;;36.85;19.92;;;;;;;12.51;100.00;101555.47;5074729;28;20390;-63
2021/07/02 05:02:51;;;;;;;36.88;19.58;;;;;;;12.50;100.00;101558.13;5074614;28;20375;-62
2021/07/02 05:05:17;;;;;;;37.35;19.92;;;;;;;12.48;100.00;101559.84;5074531;28;20103;-63
2021/07/02 05:07:42;;;;;;;39.35;19.70;;;;;;;12.44;100.00;101553.66;5074481;28;20391;-63
2021/07/02 05:10:08;;;;;;;39.83;19.75;;;;;;;12.43;100.00;101551.88;5074654;28;20027;-62
2021/07/02 05:12:33;;;;;;;36.40;20.23;;;;;;;12.44;100.00;101551.00;5074067;28;20025;-63
2021/07/02 05:14:59;;;;;;;38.17;20.20;;;;;;;12.38;100.00;101554.50;5074218;28;20032;-63
2021/07/02 05:17:25;;;;;;;37.72;20.23;;;;;;;12.43;100.00;101551.00;5074506;28;20032;-61
2021/07/02 05:19:51;;;;;;;36.75;20.40;;;;;;;12.53;100.00;101555.50;5074310;28;20032;-61
2021/07/02 05:22:18;;;;;;;39.03;19.52;;;;;;;12.68;100.00;101560.00;5074152;28;20031;-61
2021/07/02 05:24:47;;;;;;;38.25;21.30;;;;;;;12.91;100.00;101560.16;5074238;28;20074;-62
2021/07/02 05:27:13;;;;;;;36.17;19.33;;;;;;;13.09;100.00;101556.72;5074233;28;20040;-63
2021/07/02 05:29:39;;;;;;;39.08;20.05;;;;;;;13.13;100.00;101553.19;5074039;28;20510;-62
2021/07/02 05:32:05;;;;;;;34.03;18.98;;;;;;;13.17;97.40;101562.97;5073986;28;20025;-63
2021/07/02 05:34:31;;;;;;;38.45;20.38;;;;;;;13.29;100.00;101556.81;5072253;28;20386;-61
2021/07/02 05:36:56;;;;;;;34.97;19.27;;;;;;;13.38;96.06;101561.31;5071856;28;20551;-66
2021/07/02 05:39:22;;;;;;;35.08;18.33;;;;;;;13.45;94.77;101556.94;5072519;28;20066;-66
2021/07/02 05:41:47;;;;;;;35.17;18.50;;;;;;;13.51;94.61;101556.94;5073081;28;20028;-65
2021/07/02 05:44:12;;;;;;;35.05;19.20;;;;;;;13.57;96.83;101557.88;5072670;28;20064;-66
2021/07/02 05:46:38;;;;;;;34.70;17.92;;;;;;;13.71;93.75;101567.63;5072830;28;20059;-66
2021/07/02 05:49:05;;;;;;;32.97;17.83;;;;;;;13.78;92.38;101577.41;5072555;28;20031;-66
2021/07/02 05:51:30;;;;;;;34.30;17.92;;;;;;;13.80;91.70;101565.00;5072884;28;20025;-66
2021/07/02 05:53:55;;;;;;;34.35;17.33;;;;;;;13.79;90.84;101568.56;5072858;28;20089;-66
2021/07/02 05:56:27;;;;;;;34.22;17.73;;;;;;;13.82;91.26;101573.88;5072515;28;20051;-64
2021/07/02 05:58:53;;;;;;;32.70;17.95;;;;;;;13.92;89.06;101573.00;5070284;28;20053;-66
2021/07/02 06:01:18;;;;;;;34.38;18.05;;;;;;;14.07;90.09;101577.47;5073102;28;20029;-65
2021/07/02 06:03:43;;;;;;;33.30;17.52;;;;;;;14.13;87.39;101581.91;5072460;28;20113;-66
2021/07/02 06:06:09;;;;;;;32.25;16.80;;;;;;;14.23;90.14;101580.16;5072490;28;20031;-66
2021/07/02 06:08:34;;;;;;;34.28;16.70;;;;;;;14.28;89.40;101581.03;5071489;28;20025;-65
2021/07/02 06:11:00;;;;;;;34.25;17.58;;;;;;;14.21;87.92;101585.47;5072368;28;20025;-65
2021/07/02 06:13:26;;;;;;;31.42;16.02;;;;;;;14.18;87.09;101581.91;5072355;28;20056;-65
2021/07/02 06:15:52;;;;;;;31.48;16.27;;;;;;;14.19;84.07;101589.88;5072650;28;20064;-65
2021/07/02 06:18:17;;;;;;;36.35;17.65;;;;;;;14.28;86.69;101592.56;5071986;28;20020;-65
2021/07/02 06:20:42;;;;;;;32.60;17.10;;;;;;;14.51;83.92;101591.66;5072389;28;20435;-65
2021/07/02 06:23:08;;;;;;;30.75;16.15;;;;;;;14.61;83.81;101596.13;5072217;28;20099;-67
2021/07/02 06:25:33;;;;;;;31.90;17.30;;;;;;;14.64;82.71;101581.94;5072063;28;20027;-66
2021/07/02 06:27:58;;;;;;;31.92;16.40;;;;;;;14.52;81.52;101587.22;5072320;28;20031;-65
2021/07/02 06:30:24;;;;;;;31.20;16.08;;;;;;;14.66;81.29;101589.94;5070812;28;20487;-64
2021/07/02 06:32:49;;;;;;;31.55;16.05;;;;;;;14.77;81.35;101597.00;5072310;28;20425;-66
2021/07/02 06:35:14;;;;;;;31.30;16.50;;;;;;;14.77;80.28;101593.47;5072628;28;20017;-65
2021/07/02 06:37:40;;;;;;;31.95;16.88;;;;;;;14.83;80.27;101598.78;5072047;28;20530;-67
2021/07/02 06:40:07;;;;;;;32.20;17.13;;;;;;;14.85;81.84;101599.66;5071994;28;20044;-66
2021/07/02 06:42:32;;;;;;;33.25;17.17;;;;;;;14.96;81.23;101602.31;5071666;28;20029;-65
2021/07/02 06:44:57;;;;;;;32.03;17.42;;;;;;;14.92;82.50;101601.41;5071461;28;20036;-63
2021/07/02 06:47:23;;;;;;;35.08;18.20;;;;;;;14.87;84.03;101605.88;5071714;28;20028;-66
2021/07/02 06:49:48;;;;;;;33.05;17.05;;;;;;;14.90;82.38;101600.53;5071713;28;20025;-66
2021/07/02 06:52:13;;;;;;;33.60;18.15;;;;;;;14.85;79.00;101615.63;5071720;28;20021;-65
2021/07/02 06:54:39;;;;;;;32.33;17.73;;;;;;;14.67;80.07;101602.34;5071534;28;20096;-66
2021/07/02 06:57:07;;;;;;;32.92;18.50;;;;;;;14.62;82.22;101605.91;5071779;28;20155;-66
2021/07/02 06:59:37;;;;;;;34.10;18.73;;;;;;;14.62;84.05;101605.91;5070931;28;20080;-60
2021/07/02 07:02:02;;;;;;;34.72;18.40;;;;;;;14.70;82.13;101600.56;5071645;28;20039;-61
2021/07/02 07:04:34;;;;;;;32.90;18.33;;;;;;;14.77;81.29;101602.34;5071759;28;20029;-60
2021/07/02 07:06:59;;;;;;;32.97;18.42;;;;;;;14.94;82.41;101597.00;5071405;28;20020;-61
2021/07/02 07:09:25;;;;;;;33.05;19.10;;;;;;;14.98;80.40;101604.09;5071397;28;20028;-61
2021/07/02 07:11:50;;;;;;;33.10;18.17;;;;;;;15.29;81.81;101598.69;5071687;28;20548;-60
2021/07/02 07:14:16;;;;;;;34.17;18.08;;;;;;;15.42;79.13;101593.28;5071540;28;20031;-59
2021/07/02 07:16:41;;;;;;;36.10;17.95;;;;;;;15.43;78.33;101598.63;5070918;28;20345;-60
2021/07/02 07:19:07;;;;;;;32.83;17.52;;;;;;;15.45;76.94;101596.84;5071274;28;20039;-60
2021/07/02 07:21:32;;;;;;;33.85;18.23;;;;;;;15.62;79.41;101602.09;5074287;28;20020;-60
2021/07/02 07:23:57;;;;;;;33.63;18.08;;;;;;;15.60;77.69;101603.88;5076193;28;20367;-61
2021/07/02 07:26:23;;;;;;;34.03;18.67;;;;;;;15.50;79.31;101604.81;5075836;28;20027;-61
2021/07/02 07:28:48;;;;;;;31.98;17.90;;;;;;;15.42;78.83;101604.84;5073573;28;20036;-61
2021/07/02 07:31:13;;;;;;;34.47;17.48;;;;;;;15.35;79.09;101611.09;5074296;28;20023;-61
2021/07/02 07:33:43;;;;;;;34.70;17.98;;;;;;;15.32;78.31;101613.78;5074428;28;20463;-61
2021/07/02 07:36:11;;;;;;;35.05;19.10;;;;;;;15.30;78.64;101611.13;5074312;28;20040;-60
2021/07/02 07:38:37;;;;;;;36.10;18.95;;;;;;;15.24;78.44;101616.44;5074011;28;20086;-59
2021/07/02 07:41:02;;;;;;;36.42;20.23;;;;;;;15.23;79.56;101608.44;5075581;28;20455;-61
2021/07/02 07:43:27;;;;;;;34.53;19.65;;;;;;;15.28;81.77;101612.88;5074930;28;20025;-61
2021/07/02 07:45:53;;;;;;;36.33;19.45;;;;;;;15.33;79.32;101620.84;5074319;28;20063;-61
2021/07/02 07:48:18;;;;;;;35.05;19.48;;;;;;;15.23;80.97;101624.44;5074507;28;20029;-61
2021/07/02 07:50:47;;;;;;;37.25;20.48;;;;;;;15.27;81.37;101612.88;5075237;28;20031;-61
2021/07/02 07:53:12;;;;;;;36.78;20.50;;;;;;;15.32;81.85;101621.75;5075249;28;20025;-61
2021/07/02 07:55:38;;;;;;;40.38;22.58;;;;;;;15.34;80.44;101617.31;5074806;28;20446;-65
2021/07/02 07:58:03;;;;;;;37.97;21.52;;;;;;;15.35;79.89;101619.09;5074896;28;20081;-63
2021/07/02 08:00:29;;;;;;;37.72;21.10;;;;;;;15.38;81.25;101618.16;5074646;28;20040;-63
2021/07/02 08:02:55;;;;;;;38.75;21.48;;;;;;;15.45;81.17;101625.25;5075058;28;20107;-64
2021/07/02 08:05:22;;;;;;;39.15;21.92;;;;;;;15.58;81.29;101627.00;5075150;28;20430;-63
2021/07/02 08:07:47;;;;;;;37.67;21.73;;;;;;;15.80;79.45;101622.50;5075535;28;20439;-64
2021/07/02 08:10:16;;;;;;;38.55;21.98;;;;;;;16.08;77.59;101624.13;5074953;28;20044;-66
2021/07/02 08:12:41;;;;;;;39.88;23.17;;;;;;;16.16;76.47;101619.59;5068721;28;20032;-65
2021/07/02 08:15:09;;;;;;;40.03;23.05;;;;;;;16.27;75.48;101623.09;5075124;28;20033;-66
2021/07/02 08:17:35;;;;;;;41.50;24.60;;;;;;;16.43;74.53;101623.88;5075027;28;20020;-66
2021/07/02 08:20:00;;;;;;;44.38;25.08;;;;;;;16.59;74.59;101621.09;5074869;28;20543;-66
2021/07/02 08:22:27;;;;;;;42.22;23.85;;;;;;;16.74;75.12;101634.28;5075188;28;20028;-66
2021/07/02 08:24:52;;;;;;;45.70;26.83;;;;;;;16.71;70.52;101627.19;5075328;28;20375;-66
2021/07/02 08:27:19;;;;;;;43.58;24.95;;;;;;;17.17;71.17;101633.91;5075239;28;20021;-64
2021/07/02 08:29:44;;;;;;;44.45;25.42;;;;;;;17.67;69.22;101634.22;5075281;28;20035;-65
2021/07/02 08:32:09;;;;;;;45.67;26.45;;;;;;;17.93;66.33;101625.00;5074950;28;20096;-65
2021/07/02 08:34:35;;;;;;;42.33;25.67;;;;;;;18.04;66.94;101616.81;5071265;28;20033;-65
2021/07/02 08:37:01;;;;;;;45.90;26.08;;;;;;;18.24;66.21;101619.19;5075045;28;20103;-65
2021/07/02 08:39:26;;;;;;;46.65;26.10;;;;;;;18.07;66.68;101624.78;5074939;28;20027;-65
2021/07/02 08:41:52;;;;;;;43.85;26.50;;;;;;;17.98;65.84;101619.59;5075055;28;20027;-65
2021/07/02 08:44:18;;;;;;;47.85;27.60;;;;;;;17.94;67.49;101624.97;5074814;28;20107;-65
2021/07/02 08:46:47;;;;;;;47.30;26.75;;;;;;;18.06;67.65;101623.91;5074762;28;20024;-65
2021/07/02 08:49:13;;;;;;;48.03;27.70;;;;;;;17.98;68.55;101628.47;5074828;28;20025;-65
2021/07/02 08:51:39;;;;;;;47.10;26.60;;;;;;;17.75;69.36;101632.34;5074783;28;20410;-65
2021/07/02 08:54:04;;;;;;;49.28;28.58;;;;;;;17.67;69.62;101626.19;5074613;28;20035;-65
2021/07/02 08:56:30;;;;;;;48.70;28.52;;;;;;;17.48;70.95;101640.72;5074848;28;20032;-66
2021/07/02 08:58:55;;;;;;;46.30;27.92;;;;;;;17.27;71.39;101650.75;5074334;28;20483;-65
2021/07/02 09:01:44;;;;;;;48.05;29.30;;;;;;;17.04;71.79;101648.31;5074486;28;20119;-65
2021/07/02 09:04:23;;;;;;;49.85;28.50;;;;;;;16.92;72.48;101649.31;5071162;28;20029;-65
2021/07/02 09:07:19;;;;;;;50.40;28.60;;;;;;;17.01;74.00;101653.69;5072372;28;20134;-65
2021/07/02 09:09:48;;;;;;;49.55;27.45;;;;;;;16.82;73.65;101653.81;5005689;28;20041;-65
2021/07/02 09:12:15;;;;;;;53.50;30.13;;;;;;;16.70;75.61;101662.81;5012361;28;20064;-65
2021/07/02 09:14:55;;;;;;;49.88;29.83;;;;;;;16.60;75.79;101665.53;5012564;28;20033;-65
2021/07/02 09:17:20;;;;;;;50.72;30.70;;;;;;;16.46;77.53;101660.31;5009106;28;20037;-62
2021/07/02 09:20:01;;;;;;;53.63;32.55;;;;;;;16.44;77.09;101656.75;5011217;28;20050;-66
2021/07/02 09:22:26;;;;;;;55.30;33.80;;;;;;;16.36;78.18;101664.81;5011432;28;20030;-63
2021/07/02 09:24:51;;;;;;;54.67;33.28;;;;;;;16.37;78.20;101661.28;5011955;28;20032;-62
2021/07/02 09:27:27;;;;;;;55.70;32.80;;;;;;;16.39;77.32;101663.00;5012329;28;20040;-63
2021/07/02 09:30:19;;;;;;;58.42;32.95;;;;;;;16.51;76.75;101659.41;5012100;28;20129;-62
2021/07/02 09:32:47;;;;;;;53.80;32.63;;;;;;;16.41;78.27;101662.13;4948570;28;20546;-59
2021/07/02 09:35:15;;;;;;;59.63;35.33;;;;;;;16.25;78.44;101666.66;4952525;29;20148;-66
2021/07/02 09:37:43;;;;;;;58.13;33.67;;;;;;;16.21;79.48;101665.81;4953304;29;20039;-68
2021/07/02 09:40:19;;;;;;;59.25;34.90;;;;;;;16.21;78.66;101672.03;4953145;29;20545;-65
2021/07/02 09:42:46;;;;;;;58.33;32.30;;;;;;;16.12;80.58;101676.53;4951997;28;20059;-66
2021/07/02 09:45:16;;;;;;;69.53;37.25;;;;;;;16.10;79.27;101683.66;4960987;28;20550;-65
2021/07/02 09:47:44;;;;;;;73.20;38.38;;;;;;;15.94;78.84;101678.38;5030486;28;20025;-65
2021/07/02 09:50:18;;;;;;;68.72;36.90;;;;;;;15.82;80.56;101686.47;5030412;28;20033;-66
2021/07/02 09:52:48;;;;;;;71.25;38.92;;;;;;;15.58;84.55;101690.03;5029932;28;20029;-66
2021/07/02 09:55:15;;;;;;;71.78;38.05;;;;;;;15.24;89.30;101696.34;5028980;28;20021;-65
2021/07/02 09:57:40;;;;;;;74.32;39.67;;;;;;;15.10;93.54;101688.38;5030270;28;20084;-65
2021/07/02 10:00:08;;;;;;;80.55;41.30;;;;;;;15.02;96.22;101689.28;5027654;28;20081;-64
2021/07/02 10:02:34;;;;;;;78.45;41.83;;;;;;;15.02;95.54;101698.16;5030516;28;20488;-65
2021/07/02 10:05:00;;;;;;;78.10;40.90;;;;;;;15.05;97.86;101695.47;5030225;28;20036;-64
2021/07/02 10:07:27;;;;;;;80.53;41.22;;;;;;;15.15;99.60;101707.00;5030354;28;20025;-64
2021/07/02 10:09:52;;;;;;;82.82;41.55;;;;;;;15.25;96.71;101708.78;5055057;28;20059;-64
2021/07/02 10:12:21;;;;;;;78.43;41.03;;;;;;;15.33;95.50;101708.75;5072323;28;20460;-61
2021/07/02 10:14:49;;;;;;;76.65;41.15;;;;;;;15.28;95.75;101708.75;5072422;28;20029;-61
2021/07/02 10:17:17;;;;;;;77.70;41.33;;;;;;;15.30;95.25;101714.09;5071148;28;20034;-61
2021/07/02 10:19:43;;;;;;;75.18;40.85;;;;;;;15.48;95.16;101722.06;5069786;28;20085;-62
2021/07/02 10:22:10;;;;;;;73.60;41.00;;;;;;;15.62;97.55;101724.66;5072093;28;20032;-62
2021/07/02 10:24:37;;;;;;;77.00;42.90;;;;;;;15.87;99.81;101719.28;5072247;28;20021;-62
2021/07/02 10:27:03;;;;;;;73.40;38.53;;;;;;;16.13;94.84;101728.97;5072399;28;20024;-60
2021/07/02 10:29:31;;;;;;;74.68;40.15;;;;;;;16.44;90.03;101729.72;5072224;28;20032;-61
2021/07/02 10:31:57;;;;;;;72.97;38.17;;;;;;;16.68;90.63;101719.75;5071956;28;20078;-60
2021/07/02 10:34:23;;;;;;;70.93;40.78;;;;;;;16.84;89.08;101731.22;5071717;28;20532;-60
2021/07/02 10:36:49;;;;;;;72.57;38.25;;;;;;;16.94;87.29;101730.28;5065936;28;20082;-62
2021/07/02 10:39:33;;;;;;;65.18;36.83;;;;;;;17.11;85.57;101722.13;5066918;28;20028;-61
2021/07/02 10:42:06;;;;;;;67.15;36.92;;;;;;;17.09;84.28;101729.25;5067965;28;20325;-62
2021/07/02 10:44:32;;;;;;;64.50;37.20;;;;;;;17.08;84.08;101723.03;5069275;28;20047;-61
2021/07/02 10:46:57;;;;;;;63.70;38.20;;;;;;;16.99;80.75;101722.22;5068576;28;20021;-62
2021/07/02 10:49:34;;;;;;;61.17;36.95;;;;;;;16.99;84.02;101725.75;5069303;28;20074;-62
2021/07/02 10:52:00;;;;;;;63.33;37.90;;;;;;;16.88;81.58;101725.00;5068865;28;20013;-62
2021/07/02 10:54:28;;;;;;;65.57;38.40;;;;;;;16.85;83.93;101716.97;5068973;28;20388;-63
2021/07/02 10:56:57;;;;;;;60.08;36.95;;;;;;;16.91;82.73;101724.97;5068330;28;20052;-63
2021/07/02 10:59:42;;;;;;;63.10;40.00;;;;;;;16.80;83.99;101724.13;5064635;28;20087;-65
2021/07/02 11:02:08;;;;;;;65.72;41.58;;;;;;;16.83;85.26;101722.31;5068746;28;20036;-65